Time;durP1;ratioP1;P1;durP2;ratioP2;P2;SDS_P1;SDS_P2;PMS_P1;PMS_P2;Temp;Humidity;BMP_temperature;BMP_pressure;BME280_temperature;BME280_humidity;BME280_pressure;Samples;Min_cycle;Max_cycle;Signal;HPM_P1;HPM_P2
2022/07/02 00:00:22;;;;;;;2.47;2.22;;;;;;;;;;5053203;28;20060;-65
2022/07/02 00:02:50;;;;;;;3.88;2.30;;;;;;;;;;5053110;28;20500;-65
2022/07/02 00:05:23;;;;;;;3.72;2.28;;;;;;;;;;5052881;28;20128;-65
2022/07/02 00:07:50;;;;;;;2.50;2.30;;;;;;;;;;5053401;28;20057;-65
2022/07/02 00:10:18;;;;;;;4.05;2.70;;;;;;;;;;5052465;28;20045;-65
2022/07/02 00:12:45;;;;;;;2.65;2.45;;;;;;;;;;5052765;28;20049;-65
2022/07/02 00:15:12;;;;;;;2.92;2.60;;;;;;;;;;5068426;28;20048;-65
2022/07/02 00:17:39;;;;;;;3.63;2.60;;;;;;;;;;5052864;28;20053;-65
2022/07/02 00:20:06;;;;;;;3.78;2.83;;;;;;;;;;5052685;28;20053;-65
2022/07/02 00:22:33;;;;;;;4.35;2.55;;;;;;;;;;5052570;28;20049;-65
2022/07/02 00:24:59;;;;;;;7.53;3.20;;;;;;;;;;5052712;28;20049;-64
2022/07/02 00:27:28;;;;;;;2.47;2.25;;;;;;;;;;5052860;28;20055;-65
2022/07/02 00:30:00;;;;;;;5.90;3.20;;;;;;;;;;5052591;28;20060;-66
2022/07/02 00:32:34;;;;;;;3.30;3.00;;;;;;;;;;5069027;28;20413;-64
2022/07/02 00:35:09;;;;;;;3.33;3.03;;;;;;;;;;5069506;28;20052;-65
2022/07/02 00:37:37;;;;;;;4.88;3.05;;;;;;;;;;5067993;28;20059;-65
2022/07/02 00:40:05;;;;;;;3.60;3.30;;;;;;;;;;5069134;28;20049;-65
2022/07/02 00:42:34;;;;;;;5.07;3.50;;;;;;;;;;5068869;28;20056;-65
2022/07/02 00:45:02;;;;;;;4.38;3.30;;;;;;;;;;5095636;22;20041;-65
2022/07/02 00:47:28;;;;;;;3.45;3.13;;;;;;;;;;5031779;28;20045;-65
2022/07/02 00:49:55;;;;;;;3.58;3.10;;;;;;;;;;5047918;28;20049;-65
2022/07/02 00:52:22;;;;;;;6.35;3.33;;;;;;;;;;5047752;28;20422;-65
2022/07/02 00:54:48;;;;;;;3.58;3.28;;;;;;;;;;5049764;28;20083;-65
2022/07/02 00:57:15;;;;;;;6.70;3.50;;;;;;;;;;5048004;28;20072;-65
2022/07/02 00:59:43;;;;;;;5.00;3.35;;;;;;;;;;5031378;28;20053;-65
2022/07/02 01:02:09;;;;;;;3.50;3.20;;;;;;;;;;5047425;28;20045;-65
2022/07/02 01:04:36;;;;;;;4.25;3.85;;;;;;;;;;5048602;28;20057;-65
2022/07/02 01:07:06;;;;;;;5.22;3.40;;;;;;;;;;5048331;28;20064;-65
2022/07/02 01:12:26;;;;;;;4.40;2.95;;;;;;;;;;5033889;28;20046;-65
2022/07/02 01:14:54;;;;;;;6.90;3.97;;;;;;;;;;5030892;28;20045;-65
2022/07/02 01:17:21;;;;;;;4.05;3.08;;;;;;;;;;5047352;28;20448;-65
2022/07/02 01:19:48;;;;;;;4.25;3.15;;;;;;;;;;5047101;28;20419;-65
2022/07/02 01:22:23;;;;;;;5.82;3.13;;;;;;;;;;5048009;28;20511;-65
2022/07/02 01:24:51;;;;;;;9.18;3.92;;;;;;;;;;5030604;28;20060;-65
2022/07/02 01:27:19;;;;;;;5.75;4.10;;;;;;;;;;5048274;28;20056;-65
2022/07/02 01:29:45;;;;;;;6.40;3.53;;;;;;;;;;5030475;28;20049;-64
2022/07/02 01:32:12;;;;;;;4.60;4.15;;;;;;;;;;5046646;28;20049;-65
2022/07/02 01:34:41;;;;;;;4.50;3.50;;;;;;;;;;5047860;28;20103;-65
2022/07/02 01:37:13;;;;;;;5.13;3.67;;;;;;;;;;5046630;28;20049;-65
2022/07/02 01:39:41;;;;;;;3.90;3.50;;;;;;;;;;5047862;28;20056;-65
2022/07/02 01:42:08;;;;;;;4.13;3.72;;;;;;;;;;5044471;28;20393;-65
2022/07/02 01:44:36;;;;;;;4.78;3.50;;;;;;;;;;5034298;28;20053;-65
2022/07/02 01:47:08;;;;;;;3.45;3.15;;;;;;;;;;5033240;28;20046;-65
2022/07/02 01:49:35;;;;;;;3.97;3.50;;;;;;;;;;5017361;28;20504;-65
2022/07/02 01:52:02;;;;;;;5.30;3.40;;;;;;;;;;5034163;28;20046;-65
2022/07/02 01:54:29;;;;;;;4.20;3.30;;;;;;;;;;5032948;28;20064;-65
2022/07/02 01:56:56;;;;;;;6.03;3.58;;;;;;;;;;5034341;28;20538;-65
2022/07/02 01:59:23;;;;;;;5.60;3.83;;;;;;;;;;5016763;28;20263;-65
2022/07/02 02:01:49;;;;;;;5.40;3.70;;;;;;;;;;5034104;28;20049;-65
2022/07/02 02:04:16;;;;;;;4.97;3.53;;;;;;;;;;5032706;28;20056;-65
2022/07/02 02:06:43;;;;;;;4.63;2.97;;;;;;;;;;5034173;28;20279;-65
2022/07/02 02:09:10;;;;;;;7.35;3.35;;;;;;;;;;5034219;28;20053;-65
2022/07/02 02:11:36;;;;;;;5.47;3.20;;;;;;;;;;5032554;28;20124;-65
2022/07/02 02:14:03;;;;;;;3.90;2.65;;;;;;;;;;5033944;28;20076;-64
2022/07/02 02:16:30;;;;;;;7.38;3.30;;;;;;;;;;5032658;28;20061;-65
2022/07/02 02:18:59;;;;;;;3.97;3.00;;;;;;;;;;5033817;28;20058;-65
2022/07/02 02:21:27;;;;;;;4.95;3.17;;;;;;;;;;5033886;28;20053;-65
2022/07/02 02:23:54;;;;;;;3.22;2.95;;;;;;;;;;5000293;28;20050;-65
2022/07/02 02:26:21;;;;;;;3.67;3.05;;;;;;;;;;5033773;28;20064;-65
2022/07/02 02:28:48;;;;;;;4.00;3.20;;;;;;;;;;5032486;28;20092;-65
2022/07/02 02:31:15;;;;;;;6.72;3.83;;;;;;;;;;5015812;28;20049;-65
2022/07/02 02:33:41;;;;;;;7.80;3.20;;;;;;;;;;5032461;28;20057;-65
2022/07/02 02:36:08;;;;;;;5.70;3.08;;;;;;;;;;5032325;28;20052;-65
2022/07/02 02:38:36;;;;;;;4.43;3.10;;;;;;;;;;5032360;28;20491;-65
2022/07/02 02:41:05;;;;;;;6.03;3.03;;;;;;;;;;5016170;28;20046;-65
2022/07/02 02:43:33;;;;;;;3.50;3.20;;;;;;;;;;5033477;28;20056;-65
2022/07/02 02:46:00;;;;;;;7.28;3.33;;;;;;;;;;5033349;28;20056;-65
2022/07/02 02:48:27;;;;;;;3.85;3.00;;;;;;;;;;5032284;28;20069;-65
2022/07/02 02:50:55;;;;;;;9.13;3.35;;;;;;;;;;5031787;28;20053;-65
2022/07/02 02:53:21;;;;;;;8.70;3.42;;;;;;;;;;5031925;28;20424;-65
2022/07/02 02:55:48;;;;;;;3.67;3.03;;;;;;;;;;5031443;28;20049;-65
2022/07/02 02:58:15;;;;;;;4.10;2.53;;;;;;;;;;5031901;28;20056;-64
2022/07/02 03:00:42;;;;;;;4.68;2.70;;;;;;;;;;5033012;28;20055;-65
2022/07/02 03:03:08;;;;;;;3.03;2.55;;;;;;;;;;4999460;28;20045;-65
2022/07/02 03:05:35;;;;;;;3.88;3.17;;;;;;;;;;5033119;28;20099;-65
2022/07/02 03:08:02;;;;;;;2.90;2.60;;;;;;;;;;5031854;28;20053;-65
2022/07/02 03:10:29;;;;;;;3.67;2.67;;;;;;;;;;5031760;28;20060;-65
2022/07/02 03:12:55;;;;;;;4.43;2.67;;;;;;;;;;5032632;28;20042;-64
2022/07/02 03:15:22;;;;;;;2.45;2.15;;;;;;;;;;5031871;28;20407;-64
2022/07/02 03:17:48;;;;;;;3.83;2.95;;;;;;;;;;5031569;28;20060;-64
2022/07/02 03:20:15;;;;;;;2.60;2.40;;;;;;;;;;5032820;28;20055;-64
2022/07/02 03:22:42;;;;;;;10.02;2.85;;;;;;;;;;5032610;28;20057;-64
2022/07/02 03:25:09;;;;;;;3.35;2.47;;;;;;;;;;5031498;28;20431;-64
2022/07/02 03:27:35;;;;;;;3.78;2.60;;;;;;;;;;5031776;28;20050;-64
2022/07/02 03:30:02;;;;;;;8.27;2.75;;;;;;;;;;5032637;28;20045;-64
2022/07/02 03:32:29;;;;;;;4.15;2.30;;;;;;;;;;5031316;28;20072;-64
2022/07/02 03:34:56;;;;;;;8.88;3.03;;;;;;;;;;5032620;28;20049;-64
2022/07/02 03:37:28;;;;;;;3.15;2.85;;;;;;;;;;5032517;28;20504;-64
2022/07/02 03:39:55;;;;;;;3.72;2.38;;;;;;;;;;5031318;28;20052;-64
2022/07/02 03:42:22;;;;;;;3.95;2.70;;;;;;;;;;5031264;28;20128;-64
2022/07/02 03:44:49;;;;;;;2.70;2.50;;;;;;;;;;5032570;28;20049;-64
2022/07/02 03:47:16;;;;;;;5.65;2.60;;;;;;;;;;5031381;28;20049;-64
2022/07/02 03:49:43;;;;;;;3.45;2.70;;;;;;;;;;5031225;28;20053;-64
2022/07/02 03:52:09;;;;;;;4.15;2.90;;;;;;;;;;5030917;28;20049;-65
2022/07/02 03:54:36;;;;;;;3.47;2.90;;;;;;;;;;5014526;28;20050;-64
2022/07/02 03:57:03;;;;;;;4.10;3.60;;;;;;;;;;5032195;28;20050;-64
2022/07/02 03:59:30;;;;;;;4.47;3.63;;;;;;;;;;5014960;28;20060;-64
2022/07/02 04:01:57;;;;;;;3.50;2.97;;;;;;;;;;5014602;28;20072;-64
2022/07/02 04:04:23;;;;;;;5.88;3.10;;;;;;;;;;5032252;28;20057;-64
2022/07/02 04:06:50;;;;;;;3.70;3.20;;;;;;;;;;5030655;28;20072;-64
2022/07/02 04:09:17;;;;;;;4.57;3.00;;;;;;;;;;5030761;28;20415;-64
2022/07/02 04:11:43;;;;;;;9.70;4.03;;;;;;;;;;5030631;28;20049;-65
2022/07/02 04:14:10;;;;;;;5.57;3.67;;;;;;;;;;5030754;28;20053;-65
2022/07/02 04:16:37;;;;;;;5.30;3.05;;;;;;;;;;5031761;28;20053;-65
2022/07/02 04:19:03;;;;;;;4.55;3.08;;;;;;;;;;5031924;28;20054;-65
2022/07/02 04:21:40;;;;;;;5.78;3.22;;;;;;;;;;5031704;28;20045;-65
2022/07/02 04:24:07;;;;;;;3.95;3.30;;;;;;;;;;5014215;28;20056;-65
2022/07/02 04:26:33;;;;;;;4.35;3.67;;;;;;;;;;5014474;28;20053;-65
2022/07/02 04:29:01;;;;;;;4.05;3.45;;;;;;;;;;5030714;28;20500;-65
2022/07/02 04:31:29;;;;;;;7.65;3.47;;;;;;;;;;5030454;28;20562;-66
2022/07/02 04:33:55;;;;;;;5.53;3.40;;;;;;;;;;5032338;28;20052;-65
2022/07/02 04:36:22;;;;;;;4.90;2.78;;;;;;;;;;5030954;28;20065;-65
2022/07/02 04:38:49;;;;;;;6.50;3.40;;;;;;;;;;5031768;28;20053;-65
2022/07/02 04:41:15;;;;;;;5.22;3.15;;;;;;;;;;5014147;28;20049;-65
2022/07/02 04:43:42;;;;;;;7.35;3.75;;;;;;;;;;5031595;28;20077;-65
2022/07/02 04:46:09;;;;;;;8.02;3.17;;;;;;;;;;5031354;28;20073;-65
2022/07/02 04:48:35;;;;;;;4.18;3.72;;;;;;;;;;5030436;28;20049;-65
2022/07/02 04:51:02;;;;;;;5.55;3.30;;;;;;;;;;5030562;28;20053;-65
2022/07/02 04:53:29;;;;;;;3.92;3.25;;;;;;;;;;5030179;28;20050;-65
2022/07/02 04:55:55;;;;;;;4.03;3.38;;;;;;;;;;5031747;28;20401;-64
2022/07/02 04:58:22;;;;;;;4.05;3.25;;;;;;;;;;5031561;28;20049;-64
2022/07/02 05:00:49;;;;;;;5.88;3.47;;;;;;;;;;5030259;28;20056;-65
2022/07/02 05:03:15;;;;;;;4.85;3.10;;;;;;;;;;5014232;28;20050;-65
2022/07/02 05:05:42;;;;;;;4.97;3.00;;;;;;;;;;5030413;28;20522;-65
2022/07/02 05:08:09;;;;;;;4.13;3.25;;;;;;;;;;5030374;28;20475;-65
2022/07/02 05:10:35;;;;;;;3.70;3.30;;;;;;;;;;5031687;28;20431;-65
2022/07/02 05:13:04;;;;;;;3.45;3.15;;;;;;;;;;5030212;28;20049;-65
2022/07/02 05:15:31;;;;;;;4.68;2.80;;;;;;;;;;5030360;28;20056;-65
2022/07/02 05:17:58;;;;;;;5.80;3.08;;;;;;;;;;5031637;28;20088;-65
2022/07/02 05:20:27;;;;;;;3.38;2.80;;;;;;;;;;5033890;28;20049;-65
2022/07/02 05:22:54;;;;;;;4.57;2.92;;;;;;;;;;5017905;28;20077;-65
2022/07/02 05:25:21;;;;;;;2.78;2.50;;;;;;;;;;5017549;28;20164;-65
2022/07/02 05:27:48;;;;;;;7.55;2.90;;;;;;;;;;5033779;28;20046;-66
2022/07/02 05:30:14;;;;;;;3.40;3.10;;;;;;;;;;5033803;28;20061;-65
2022/07/02 05:32:41;;;;;;;3.33;2.58;;;;;;;;;;5033573;28;20045;-66
2022/07/02 05:35:08;;;;;;;3.10;2.72;;;;;;;;;;5034682;28;20057;-65
2022/07/02 05:37:35;;;;;;;3.03;2.72;;;;;;;;;;5035011;28;20401;-65
2022/07/02 05:40:02;;;;;;;3.50;3.20;;;;;;;;;;5034829;28;20061;-65
2022/07/02 05:42:29;;;;;;;4.55;3.08;;;;;;;;;;5033279;28;20488;-65
2022/07/02 05:44:55;;;;;;;4.38;2.90;;;;;;;;;;5034370;28;20049;-65
2022/07/02 05:47:22;;;;;;;3.90;2.70;;;;;;;;;;5034853;28;20045;-66
2022/07/02 05:49:48;;;;;;;2.83;2.63;;;;;;;;;;5034446;28;20055;-65
2022/07/02 05:52:17;;;;;;;6.45;2.85;;;;;;;;;;5034315;28;20046;-65
2022/07/02 05:54:44;;;;;;;2.28;2.08;;;;;;;;;;5033066;28;20081;-65
2022/07/02 05:57:11;;;;;;;3.50;2.20;;;;;;;;;;5033044;28;20053;-65
2022/07/02 05:59:41;;;;;;;2.42;2.08;;;;;;;;;;5033358;28;20512;-65
2022/07/02 06:02:07;;;;;;;3.20;1.95;;;;;;;;;;5033101;28;20046;-66
2022/07/02 06:04:34;;;;;;;3.25;2.05;;;;;;;;;;5033014;28;20401;-65
2022/07/02 06:09:46;;;;;;;5.97;2.15;;;;;;;;;;5034126;28;20072;-65
2022/07/02 06:12:13;;;;;;;2.85;1.60;;;;;;;;;;5016414;28;20512;-66
2022/07/02 06:14:40;;;;;;;1.98;1.60;;;;;;;;;;5033895;28;20053;-66
2022/07/02 06:17:07;;;;;;;1.90;1.60;;;;;;;;;;5034029;28;20057;-65
2022/07/02 06:19:34;;;;;;;3.60;1.40;;;;;;;;;;5032691;28;20049;-65
2022/07/02 06:22:01;;;;;;;2.72;1.20;;;;;;;;;;5034017;28;20068;-67
2022/07/02 06:24:27;;;;;;;3.20;1.25;;;;;;;;;;5034127;28;20049;-66
2022/07/02 06:26:54;;;;;;;1.30;1.20;;;;;;;;;;5033828;28;20056;-65
2022/07/02 06:29:20;;;;;;;1.00;0.90;;;;;;;;;;5033971;28;20049;-65
2022/07/02 06:31:47;;;;;;;1.75;1.02;;;;;;;;;;5033729;28;20137;-65
2022/07/02 06:34:14;;;;;;;2.70;1.25;;;;;;;;;;5016024;28;20060;-65
2022/07/02 06:36:41;;;;;;;1.85;0.98;;;;;;;;;;5033669;28;20239;-65
2022/07/02 06:39:07;;;;;;;1.00;0.82;;;;;;;;;;5033440;28;20056;-65
2022/07/02 06:44:19;;;;;;;0.80;0.80;;;;;;;;;;5058952;22;20050;-65
2022/07/02 06:46:46;;;;;;;2.20;0.73;;;;;;;;;;5053608;28;20060;-65
2022/07/02 06:49:12;;;;;;;1.17;1.05;;;;;;;;;;5053550;28;20049;-65
2022/07/02 06:51:39;;;;;;;1.27;0.80;;;;;;;;;;5053250;28;20053;-65
2022/07/02 06:54:06;;;;;;;3.97;0.82;;;;;;;;;;5052267;28;20056;-64
2022/07/02 06:56:35;;;;;;;1.67;1.00;;;;;;;;;;5053372;28;20049;-64
2022/07/02 06:59:05;;;;;;;0.90;0.90;;;;;;;;;;5053250;28;20495;-64
2022/07/02 07:01:32;;;;;;;1.05;0.60;;;;;;;;;;5053099;28;20147;-64
2022/07/02 07:03:59;;;;;;;1.35;0.73;;;;;;;;;;5052014;28;20048;-64
2022/07/02 07:06:26;;;;;;;0.47;0.47;;;;;;;;;;5052950;28;20503;-65
2022/07/02 07:08:53;;;;;;;0.98;0.60;;;;;;;;;;5053225;28;20064;-64
2022/07/02 07:11:20;;;;;;;1.13;0.90;;;;;;;;;;5052990;28;20049;-64
2022/07/02 07:13:47;;;;;;;1.95;0.70;;;;;;;;;;5052895;28;20045;-64
2022/07/02 07:16:13;;;;;;;1.20;0.70;;;;;;;;;;5052920;28;20427;-64
2022/07/02 07:18:40;;;;;;;0.77;0.75;;;;;;;;;;5052826;28;20439;-64
2022/07/02 07:21:07;;;;;;;3.38;0.80;;;;;;;;;;5052652;28;20080;-64
2022/07/02 07:23:34;;;;;;;1.50;0.90;;;;;;;;;;5052896;28;20052;-64
2022/07/02 07:26:00;;;;;;;1.42;0.70;;;;;;;;;;5052765;28;20049;-65
2022/07/02 07:28:27;;;;;;;1.30;0.55;;;;;;;;;;5052725;28;20057;-65
2022/07/02 07:30:54;;;;;;;1.00;0.80;;;;;;;;;;5052483;28;20419;-64
2022/07/02 07:33:21;;;;;;;3.05;0.90;;;;;;;;;;5052379;28;20072;-65
2022/07/02 07:35:48;;;;;;;2.33;0.63;;;;;;;;;;5052597;28;20060;-65
2022/07/02 07:38:15;;;;;;;1.65;0.50;;;;;;;;;;5052622;28;20068;-65
2022/07/02 07:40:41;;;;;;;3.10;1.10;;;;;;;;;;5051709;28;20052;-65
2022/07/02 07:43:08;;;;;;;0.63;0.55;;;;;;;;;;5052269;28;20119;-65
2022/07/02 07:45:35;;;;;;;1.60;0.60;;;;;;;;;;5050948;28;20049;-65
2022/07/02 07:48:01;;;;;;;1.30;0.50;;;;;;;;;;5052145;28;20541;-65
2022/07/02 07:50:28;;;;;;;11.23;0.95;;;;;;;;;;5052420;28;20419;-65
2022/07/02 07:52:54;;;;;;;0.85;0.65;;;;;;;;;;5051870;28;20068;-65
2022/07/02 07:55:21;;;;;;;2.33;1.17;;;;;;;;;;5052082;28;20071;-65
2022/07/02 07:57:48;;;;;;;0.30;0.30;;;;;;;;;;5052166;28;20056;-65
2022/07/02 08:00:15;;;;;;;0.70;0.70;;;;;;;;;;5052062;28;20051;-65
2022/07/02 08:02:41;;;;;;;2.85;0.60;;;;;;;;;;5052504;28;20060;-65
2022/07/02 08:05:08;;;;;;;0.95;0.50;;;;;;;;;;5052112;28;20423;-65
2022/07/02 08:07:39;;;;;;;0.77;0.57;;;;;;;;;;5052085;28;20059;-65
2022/07/02 08:10:12;;;;;;;0.50;0.45;;;;;;;;;;5051909;28;20091;-65
2022/07/02 08:12:42;;;;;;;2.55;0.52;;;;;;;;;;5051691;28;20048;-65
2022/07/02 08:15:09;;;;;;;0.50;0.50;;;;;;;;;;5052209;28;20055;-65
2022/07/02 08:17:36;;;;;;;0.68;0.65;;;;;;;;;;5051812;28;20510;-65
2022/07/02 08:20:05;;;;;;;0.82;0.52;;;;;;;;;;5051989;28;20056;-66
2022/07/02 08:22:32;;;;;;;0.93;0.47;;;;;;;;;;5051644;28;20041;-65
2022/07/02 08:24:59;;;;;;;0.57;0.47;;;;;;;;;;5051691;28;20045;-65
2022/07/02 08:27:25;;;;;;;1.60;0.70;;;;;;;;;;5051671;28;20319;-66
2022/07/02 08:29:52;;;;;;;8.38;0.75;;;;;;;;;;5051605;28;20049;-65
2022/07/02 08:32:19;;;;;;;0.63;0.40;;;;;;;;;;5051365;28;20056;-65
2022/07/02 08:34:46;;;;;;;1.70;0.70;;;;;;;;;;5050436;28;20423;-65
2022/07/02 08:37:12;;;;;;;1.45;0.70;;;;;;;;;;5051735;28;20060;-65
2022/07/02 08:39:39;;;;;;;1.17;0.52;;;;;;;;;;5050378;28;20056;-65
2022/07/02 08:42:12;;;;;;;;;;;;;;;;;;5051825;28;20088;-65
2022/07/02 08:44:38;;;;;;;2.28;0.50;;;;;;;;;;5050085;28;19921;-65
2022/07/02 08:47:07;;;;;;;11.95;1.02;;;;;;;;;;5050504;28;20133;-66
2022/07/02 08:49:35;;;;;;;3.90;0.75;;;;;;;;;;5051678;28;20049;-65
2022/07/02 08:52:03;;;;;;;3.60;0.70;;;;;;;;;;5050191;28;20542;-65
2022/07/02 08:54:33;;;;;;;3.17;0.80;;;;;;;;;;5055365;28;20048;-65
2022/07/02 08:57:01;;;;;;;4.63;1.10;;;;;;;;;;5055741;28;20056;-65
2022/07/02 08:59:31;;;;;;;9.30;1.10;;;;;;;;;;5055631;28;20052;-65
2022/07/02 09:01:59;;;;;;;2.17;0.98;;;;;;;;;;5055226;28;20049;-65
2022/07/02 09:04:26;;;;;;;3.72;0.75;;;;;;;;;;5037586;28;20045;-65
2022/07/02 09:06:54;;;;;;;0.63;0.47;;;;;;;;;;5055248;28;20049;-65
2022/07/02 09:09:20;;;;;;;1.05;0.95;;;;;;;;;;5055199;28;20419;-65
2022/07/02 09:11:47;;;;;;;1.63;0.40;;;;;;;;;;5055174;28;20053;-65
2022/07/02 09:14:14;;;;;;;1.00;0.50;;;;;;;;;;5055099;28;20419;-65
2022/07/02 09:16:40;;;;;;;1.85;0.80;;;;;;;;;;5054074;28;20079;-65
2022/07/02 09:19:07;;;;;;;1.42;0.47;;;;;;;;;;5037348;28;20052;-65
2022/07/02 09:21:47;;;;;;;0.93;0.63;;;;;;;;;;5055304;28;20053;-65
2022/07/02 09:24:13;;;;;;;0.65;0.50;;;;;;;;;;5053850;28;20519;-65
2022/07/02 09:26:40;;;;;;;1.45;0.47;;;;;;;;;;5054921;28;20045;-65
2022/07/02 09:29:07;;;;;;;0.80;0.60;;;;;;;;;;5053803;28;20049;-65
2022/07/02 09:31:47;;;;;;;1.90;0.68;;;;;;;;;;5054590;28;20522;-65
2022/07/02 09:34:31;;;;;;;2.30;0.52;;;;;;;;;;5054513;28;20049;-65
2022/07/02 09:36:58;;;;;;;0.52;0.40;;;;;;;;;;5054949;28;20049;-65
2022/07/02 09:39:31;;;;;;;0.88;0.70;;;;;;;;;;5054526;28;20463;-65
2022/07/02 09:41:58;;;;;;;0.63;0.38;;;;;;;;;;5054626;28;20048;-65
2022/07/02 09:44:27;;;;;;;2.30;0.77;;;;;;;;;;5054294;28;20049;-65
2022/07/02 09:46:54;;;;;;;0.47;0.40;;;;;;;;;;5053280;28;20049;-65
2022/07/02 09:49:20;;;;;;;0.60;0.40;;;;;;;;;;5053301;28;20507;-65
2022/07/02 09:51:52;;;;;;;0.38;0.30;;;;;;;;;;5054496;28;20277;-65
2022/07/02 09:54:23;;;;;;;1.38;0.32;;;;;;;;;;5054148;28;20052;-65
2022/07/02 09:56:51;;;;;;;1.27;0.60;;;;;;;;;;5054424;28;20304;-65
2022/07/02 09:59:17;;;;;;;1.83;0.50;;;;;;;;;;5054237;28;20067;-65
2022/07/02 10:01:44;;;;;;;2.05;0.50;;;;;;;;;;5054404;28;20052;-65
2022/07/02 10:04:11;;;;;;;0.57;0.40;;;;;;;;;;5053613;28;20041;-65
2022/07/02 10:06:38;;;;;;;3.70;0.57;;;;;;;;;;5036734;28;20045;-65
2022/07/02 10:09:05;;;;;;;0.43;0.38;;;;;;;;;;5054180;28;20124;-65
2022/07/02 10:11:31;;;;;;;0.40;0.40;;;;;;;;;;5053788;28;20388;-65
2022/07/02 10:13:58;;;;;;;0.77;0.60;;;;;;;;;;5052622;28;20488;-65
2022/07/02 10:16:25;;;;;;;0.90;0.43;;;;;;;;;;5053892;28;20060;-65
2022/07/02 10:18:51;;;;;;;1.55;0.80;;;;;;;;;;5052878;28;20056;-65
2022/07/02 10:21:18;;;;;;;1.00;0.93;;;;;;;;;;5035997;28;20652;-65
2022/07/02 10:23:45;;;;;;;0.98;0.43;;;;;;;;;;5052755;28;20052;-65
2022/07/02 10:26:12;;;;;;;0.85;0.60;;;;;;;;;;5054520;28;20049;-65
2022/07/02 10:28:39;;;;;;;0.30;0.30;;;;;;;;;;5054277;28;20060;-66
2022/07/02 10:31:07;;;;;;;1.95;0.70;;;;;;;;;;5053866;28;20396;-65
2022/07/02 10:34:05;;;;;;;1.85;0.45;;;;;;;;;;5052809;28;20045;-65
2022/07/02 10:36:31;;;;;;;1.38;0.50;;;;;;;;;;5053535;28;20048;-65
2022/07/02 10:38:59;;;;;;;1.80;0.50;;;;;;;;;;5053562;28;20045;-65
2022/07/02 10:41:31;;;;;;;0.93;0.40;;;;;;;;;;5053813;28;20048;-65
2022/07/02 10:43:59;;;;;;;0.40;0.40;;;;;;;;;;5052561;28;20045;-65
2022/07/02 10:46:27;;;;;;;0.40;0.40;;;;;;;;;;5053363;28;20060;-65
2022/07/02 10:48:57;;;;;;;0.55;0.35;;;;;;;;;;5054790;28;20049;-65
2022/07/02 10:51:29;;;;;;;1.38;0.60;;;;;;;;;;5053802;28;20053;-65
2022/07/02 10:54:06;;;;;;;2.45;0.60;;;;;;;;;;5053466;28;20076;-65
2022/07/02 10:56:49;;;;;;;0.85;0.50;;;;;;;;;;5053200;28;20558;-65
2022/07/02 10:59:23;;;;;;;0.80;0.50;;;;;;;;;;5053264;28;20554;-65
2022/07/02 11:02:06;;;;;;;1.33;0.35;;;;;;;;;;5053009;28;20053;-65
2022/07/02 11:04:33;;;;;;;0.68;0.30;;;;;;;;;;5053146;28;20041;-65
2022/07/02 11:07:08;;;;;;;0.43;0.43;;;;;;;;;;5051995;28;20053;-65
2022/07/02 11:09:55;;;;;;;0.80;0.45;;;;;;;;;;5053543;28;20399;-65
2022/07/02 11:12:37;;;;;;;0.73;0.40;;;;;;;;;;5052958;28;20053;-65
2022/07/02 11:15:04;;;;;;;0.60;0.50;;;;;;;;;;5050767;28;20045;-66
2022/07/02 11:17:48;;;;;;;0.85;0.40;;;;;;;;;;5051990;28;20456;-65
2022/07/02 11:20:22;;;;;;;1.02;0.50;;;;;;;;;;5052769;28;20526;-65
2022/07/02 11:22:48;;;;;;;0.30;0.30;;;;;;;;;;5051671;28;20418;-65
2022/07/02 11:25:15;;;;;;;1.42;0.50;;;;;;;;;;5051714;28;20045;-65
2022/07/02 11:27:42;;;;;;;1.70;0.40;;;;;;;;;;5051382;28;20053;-65
2022/07/02 11:30:09;;;;;;;0.75;0.50;;;;;;;;;;5052676;28;20396;-65
2022/07/02 11:32:36;;;;;;;0.63;0.40;;;;;;;;;;5052292;28;20057;-65
2022/07/02 11:35:03;;;;;;;0.80;0.60;;;;;;;;;;5052181;28;20049;-65
2022/07/02 11:37:30;;;;;;;0.50;0.50;;;;;;;;;;5051214;28;20060;-65
2022/07/02 11:39:56;;;;;;;0.50;0.40;;;;;;;;;;5051339;28;20060;-65
2022/07/02 11:42:35;;;;;;;0.50;0.40;;;;;;;;;;5052273;28;20428;-65
2022/07/02 11:45:02;;;;;;;2.05;0.40;;;;;;;;;;5052159;28;20048;-65
2022/07/02 11:47:29;;;;;;;1.00;0.40;;;;;;;;;;5052048;28;20048;-65
2022/07/02 11:49:55;;;;;;;0.45;0.45;;;;;;;;;;5052398;28;20495;-65
2022/07/02 11:52:22;;;;;;;0.32;0.28;;;;;;;;;;5052156;28;20353;-65
2022/07/02 11:54:49;;;;;;;0.85;0.43;;;;;;;;;;5052182;28;20044;-65
2022/07/02 11:57:15;;;;;;;0.43;0.40;;;;;;;;;;5052187;28;20048;-65
2022/07/02 11:59:49;;;;;;;0.43;0.30;;;;;;;;;;5052157;28;20053;-65
2022/07/02 12:02:16;;;;;;;0.80;0.43;;;;;;;;;;5051862;28;20049;-65
2022/07/02 12:04:43;;;;;;;0.38;0.38;;;;;;;;;;5051966;28;20049;-65
2022/07/02 12:07:09;;;;;;;0.65;0.40;;;;;;;;;;5052072;28;20052;-65
2022/07/02 12:09:38;;;;;;;1.75;0.45;;;;;;;;;;5052010;28;20049;-65
2022/07/02 12:12:05;;;;;;;1.00;0.40;;;;;;;;;;5051718;28;20140;-65
2022/07/02 12:14:32;;;;;;;0.98;0.40;;;;;;;;;;5050412;28;20098;-65
2022/07/02 12:16:59;;;;;;;0.43;0.40;;;;;;;;;;5050563;28;20566;-65
2022/07/02 12:19:30;;;;;;;1.95;0.30;;;;;;;;;;5051925;28;20045;-65
2022/07/02 12:21:56;;;;;;;0.35;0.30;;;;;;;;;;5051896;28;20220;-66
2022/07/02 12:24:25;;;;;;;0.28;0.28;;;;;;;;;;5051600;28;20518;-65
2022/07/02 12:27:00;;;;;;;0.55;0.40;;;;;;;;;;5052184;28;20480;-65
2022/07/02 12:32:16;;;;;;;0.30;0.30;;;;;;;;;;5051948;28;20503;-65
2022/07/02 12:34:44;;;;;;;0.55;0.35;;;;;;;;;;5051339;28;20538;-65
2022/07/02 12:37:21;;;;;;;0.95;0.50;;;;;;;;;;5051701;28;20084;-65
2022/07/02 12:39:47;;;;;;;1.83;0.60;;;;;;;;;;5051572;28;20118;-65
2022/07/02 12:42:19;;;;;;;1.60;0.80;;;;;;;;;;5051625;28;20508;-65
2022/07/02 12:45:06;;;;;;;1.90;1.27;;;;;;;;;;5051934;28;20049;-65
2022/07/02 12:47:38;;;;;;;0.98;0.68;;;;;;;;;;5051649;28;20283;-65
2022/07/02 12:50:12;;;;;;;0.50;0.38;;;;;;;;;;5050227;28;20063;-66
2022/07/02 12:52:49;;;;;;;0.40;0.40;;;;;;;;;;5051369;28;20072;-66
2022/07/02 12:55:35;;;;;;;0.40;0.30;;;;;;;;;;5051415;28;20045;-65
2022/07/02 12:58:08;;;;;;;1.42;0.40;;;;;;;;;;5050548;28;20136;-66
2022/07/02 13:00:35;;;;;;;;;;;;;;;;;;5051985;28;20128;-65
2022/07/02 13:03:07;;;;;;;1.10;0.63;;;;;;;;;;5051376;28;19921;-66
2022/07/02 13:05:35;;;;;;;;;;;;;;;;;;5051973;28;20052;-65
2022/07/02 13:08:02;;;;;;;1.02;0.50;;;;;;;;;;5051459;28;20362;-66
2022/07/02 13:10:28;;;;;;;1.05;0.45;;;;;;;;;;5051356;28;20049;-66
2022/07/02 13:12:55;;;;;;;0.88;0.52;;;;;;;;;;5051547;28;20049;-66
2022/07/02 13:15:22;;;;;;;1.67;0.40;;;;;;;;;;5051280;28;20538;-66
2022/07/02 13:17:49;;;;;;;1.50;0.40;;;;;;;;;;5051315;28;20166;-66
2022/07/02 13:20:16;;;;;;;1.13;0.50;;;;;;;;;;5051236;28;20048;-66
2022/07/02 13:22:43;;;;;;;1.63;0.60;;;;;;;;;;5051000;28;20053;-66
2022/07/02 13:25:11;;;;;;;1.40;0.40;;;;;;;;;;5051122;28;20068;-66
2022/07/02 13:27:39;;;;;;;0.30;0.30;;;;;;;;;;5051124;28;20442;-65
2022/07/02 13:30:07;;;;;;;0.63;0.40;;;;;;;;;;5051230;28;20056;-66
2022/07/02 13:32:33;;;;;;;0.98;0.40;;;;;;;;;;5050953;28;20496;-66
2022/07/02 13:35:00;;;;;;;1.00;0.30;;;;;;;;;;5050921;28;20045;-65
2022/07/02 13:37:27;;;;;;;0.30;0.30;;;;;;;;;;5051269;28;20056;-66
2022/07/02 13:39:53;;;;;;;0.55;0.40;;;;;;;;;;5053899;28;20114;-66
2022/07/02 13:42:20;;;;;;;0.75;0.38;;;;;;;;;;5054526;28;20049;-66
2022/07/02 13:44:47;;;;;;;0.68;0.40;;;;;;;;;;5054571;28;20040;-66
2022/07/02 13:47:14;;;;;;;0.75;0.70;;;;;;;;;;5054809;28;20049;-66
2022/07/02 13:49:40;;;;;;;0.65;0.40;;;;;;;;;;5054602;28;20072;-66
2022/07/02 13:52:14;;;;;;;0.93;0.57;;;;;;;;;;5054410;28;20088;-66
2022/07/02 13:54:40;;;;;;;0.55;0.40;;;;;;;;;;5054087;28;20510;-65
2022/07/02 13:57:08;;;;;;;0.95;0.65;;;;;;;;;;5054329;28;20059;-66
2022/07/02 13:59:34;;;;;;;0.50;0.35;;;;;;;;;;5054416;28;20049;-66
2022/07/02 14:02:01;;;;;;;0.82;0.47;;;;;;;;;;5054190;28;20431;-66
2022/07/02 14:04:28;;;;;;;1.63;0.40;;;;;;;;;;5054235;28;20045;-66
2022/07/02 14:06:54;;;;;;;6.13;0.80;;;;;;;;;;5054242;28;20059;-66
2022/07/02 14:09:21;;;;;;;0.50;0.40;;;;;;;;;;5054149;28;20667;-66
2022/07/02 14:11:47;;;;;;;1.70;0.60;;;;;;;;;;5054181;28;20059;-66
2022/07/02 14:14:14;;;;;;;1.27;0.88;;;;;;;;;;5053864;28;20052;-66
2022/07/02 14:16:41;;;;;;;0.45;0.45;;;;;;;;;;5054042;28;20052;-66
2022/07/02 14:19:07;;;;;;;1.10;0.63;;;;;;;;;;5053971;28;20099;-66
2022/07/02 14:21:34;;;;;;;0.40;0.40;;;;;;;;;;5053761;28;20052;-66
2022/07/02 14:24:01;;;;;;;0.60;0.43;;;;;;;;;;5053789;28;20060;-66
2022/07/02 14:26:27;;;;;;;0.52;0.40;;;;;;;;;;5053851;28;20053;-66
2022/07/02 14:28:54;;;;;;;1.08;0.57;;;;;;;;;;5053842;28;20064;-67
2022/07/02 14:31:21;;;;;;;0.80;0.50;;;;;;;;;;5053620;28;20049;-66
2022/07/02 14:33:47;;;;;;;1.27;0.70;;;;;;;;;;5053811;28;20431;-65
2022/07/02 14:36:14;;;;;;;1.35;0.93;;;;;;;;;;5053690;28;20063;-66
2022/07/02 14:38:40;;;;;;;1.30;0.40;;;;;;;;;;5053899;28;20049;-66
2022/07/02 14:43:53;;;;;;;0.80;0.57;;;;;;;;;;5052588;28;20070;-66
2022/07/02 14:46:22;;;;;;;2.50;0.77;;;;;;;;;;5053399;28;20049;-66
2022/07/02 14:48:49;;;;;;;2.50;0.50;;;;;;;;;;5053420;28;20132;-65
2022/07/02 14:51:16;;;;;;;2.67;0.40;;;;;;;;;;5053652;28;20045;-67
2022/07/02 14:53:43;;;;;;;0.43;0.40;;;;;;;;;;5052076;28;20087;-66
2022/07/02 14:56:09;;;;;;;1.13;0.60;;;;;;;;;;5053344;28;20068;-65
2022/07/02 14:58:36;;;;;;;1.65;0.50;;;;;;;;;;5053400;28;20045;-65
2022/07/02 15:01:02;;;;;;;0.82;0.47;;;;;;;;;;5053012;28;20049;-66